createdAt,value
2019-02-03T00:02:04.179Z,141.50
2019-02-03T00:04:30.485Z,134.17
2019-02-03T00:07:03.281Z,126.40
2019-02-03T00:09:25.301Z,129.27
2019-02-03T00:11:51.868Z,131.93
2019-02-03T00:14:18.497Z,114.70
2019-02-03T00:16:44.791Z,138.33
2019-02-03T00:19:11.420Z,131.63
2019-02-03T00:21:38.086Z,139.70
2019-02-03T00:24:04.398Z,129.77
2019-02-03T00:26:30.737Z,123.87
2019-02-03T00:28:57.125Z,161.67
2019-02-03T00:31:23.435Z,141.07
2019-02-03T00:33:49.763Z,126.93
2019-02-03T00:36:16.859Z,130.17
2019-02-03T00:38:43.492Z,142.80
2019-02-03T00:41:10.096Z,140.23
2019-02-03T00:43:36.713Z,140.63
2019-02-03T00:46:04.408Z,127.33
2019-02-03T00:48:31.014Z,129.07
2019-02-03T00:50:57.325Z,126.37
2019-02-03T00:53:24.110Z,106.20
2019-02-03T00:55:50.471Z,118.50
2019-02-03T00:58:16.820Z,117.83
2019-02-03T01:00:43.256Z,114.10
2019-02-03T01:03:10.576Z,104.70
2019-02-03T01:05:37.119Z,106.53
2019-02-03T01:08:05.099Z,106.93
2019-02-03T01:10:31.434Z,90.07
2019-02-03T01:12:58.004Z,89.07
2019-02-03T01:15:24.568Z,84.90
2019-02-03T01:17:50.893Z,77.20
2019-02-03T01:20:22.671Z,80.70
2019-02-03T01:22:49.091Z,78.17
2019-02-03T01:25:15.806Z,76.10
2019-02-03T01:27:42.194Z,89.30
2019-02-03T01:30:18.622Z,85.23
2019-02-03T01:32:45.266Z,90.23
2019-02-03T01:35:12.001Z,86.70
2019-02-03T01:37:40.000Z,92.70
2019-02-03T01:40:15.040Z,96.93
2019-02-03T01:42:42.613Z,83.60
2019-02-03T01:45:14.034Z,99.87
2019-02-03T01:47:40.359Z,100.17
2019-02-03T01:50:10.467Z,115.70
2019-02-03T01:52:37.283Z,112.30
2019-02-03T01:55:08.197Z,102.80
2019-02-03T01:57:34.799Z,115.73
2019-02-03T02:00:01.917Z,124.97
2019-02-03T02:02:28.653Z,113.70
2019-02-03T02:04:54.973Z,107.63
2019-02-03T02:07:21.261Z,124.83
2019-02-03T02:09:47.781Z,113.67
2019-02-03T02:12:14.328Z,129.13
2019-02-03T02:14:40.977Z,115.83
2019-02-03T02:17:07.270Z,119.23
2019-02-03T02:19:33.604Z,123.33
2019-02-03T02:21:59.923Z,125.23
2019-02-03T02:24:26.390Z,124.33
2019-02-03T02:26:53.105Z,109.77
2019-02-03T02:29:19.437Z,121.97
2019-02-03T02:31:46.035Z,132.90
2019-02-03T02:34:12.318Z,126.83
2019-02-03T02:36:38.785Z,135.87
2019-02-03T02:39:06.538Z,121.07
2019-02-03T02:41:34.767Z,132.23
2019-02-03T02:44:01.738Z,144.83
2019-02-03T02:46:28.295Z,135.23
2019-02-03T02:48:54.624Z,145.43
2019-02-03T02:51:20.928Z,138.13
2019-02-03T02:53:47.252Z,139.70
2019-02-03T02:56:13.547Z,137.50
2019-02-03T02:58:40.137Z,162.10
2019-02-03T03:01:06.725Z,152.90
2019-02-03T03:03:33.317Z,150.00
2019-02-03T03:06:00.679Z,159.70
2019-02-03T03:08:27.289Z,168.73
2019-02-03T03:10:53.627Z,165.50
2019-02-03T03:13:19.922Z,169.87
2019-02-03T03:15:46.259Z,181.23
2019-02-03T03:18:12.587Z,163.93
2019-02-03T03:20:38.903Z,175.17
2019-02-03T03:23:05.259Z,165.93
2019-02-03T03:25:31.583Z,166.43
2019-02-03T03:27:58.151Z,168.67
2019-02-03T03:30:27.155Z,162.40
2019-02-03T03:32:54.164Z,169.20
2019-02-03T03:35:20.866Z,162.13
2019-02-03T03:37:47.233Z,167.10
2019-02-03T03:40:17.909Z,167.57
2019-02-03T03:42:44.540Z,181.00
2019-02-03T03:45:11.404Z,171.93
2019-02-03T03:47:38.195Z,180.23
2019-02-03T03:50:11.930Z,176.27
2019-02-03T03:52:39.437Z,171.03
2019-02-03T03:55:06.981Z,158.23
2019-02-03T03:57:33.290Z,176.17
2019-02-03T03:59:59.639Z,153.53
2019-02-03T04:02:25.942Z,159.00
2019-02-03T04:04:52.269Z,147.93
2019-02-03T04:07:19.153Z,173.77
2019-02-03T04:09:45.645Z,190.67
2019-02-03T04:12:11.978Z,198.60
2019-02-03T04:14:38.283Z,186.97
2019-02-03T04:17:04.874Z,197.57
2019-02-03T04:19:31.417Z,213.00
2019-02-03T04:21:57.751Z,195.83
2019-02-03T04:24:24.082Z,183.53
2019-02-03T04:26:50.651Z,202.23
2019-02-03T04:29:17.223Z,209.33
2019-02-03T04:31:43.783Z,216.13
2019-02-03T04:34:10.395Z,204.57
2019-02-03T04:36:37.164Z,206.93
2019-02-03T04:39:05.931Z,226.50
2019-02-03T04:41:32.352Z,214.73
2019-02-03T04:43:59.004Z,188.27
2019-02-03T04:46:25.764Z,191.70
2019-02-03T04:48:52.153Z,179.10
2019-02-03T04:51:18.455Z,163.90
2019-02-03T04:53:45.058Z,170.03
2019-02-03T04:56:11.374Z,200.37
2019-02-03T04:58:37.720Z,191.70
2019-02-03T05:01:04.544Z,168.67
2019-02-03T05:03:31.120Z,172.70
2019-02-03T05:05:57.674Z,166.33
2019-02-03T05:08:24.002Z,166.00
2019-02-03T05:10:50.575Z,162.03
2019-02-03T05:13:17.154Z,155.70
2019-02-03T05:15:43.747Z,147.43
2019-02-03T05:18:10.388Z,157.30
2019-02-03T05:20:36.709Z,151.43
2019-02-03T05:23:03.059Z,149.17
2019-02-03T05:25:29.669Z,169.80
2019-02-03T05:27:56.088Z,155.57
2019-02-03T05:30:27.020Z,128.43
2019-02-03T05:32:53.469Z,125.90
2019-02-03T05:35:20.071Z,114.27
2019-02-03T05:37:46.390Z,108.27
2019-02-03T05:40:14.705Z,118.50
2019-02-03T05:42:41.286Z,136.77
2019-02-03T05:45:12.388Z,114.00
2019-02-03T05:47:38.708Z,101.20
2019-02-03T05:50:12.474Z,97.17
2019-02-03T05:52:39.032Z,100.37
2019-02-03T05:55:06.896Z,93.67
2019-02-03T05:57:33.474Z,98.43
2019-02-03T06:00:00.091Z,102.73
2019-02-03T06:02:26.868Z,93.47
2019-02-03T06:04:53.561Z,91.07
2019-02-03T06:07:20.191Z,102.93
2019-02-03T06:09:46.509Z,80.13
2019-02-03T06:12:12.838Z,77.40
2019-02-03T06:14:39.155Z,82.93
2019-02-03T06:17:05.742Z,83.17
2019-02-03T06:19:32.102Z,77.73
2019-02-03T06:21:58.677Z,88.00
2019-02-03T06:24:25.330Z,86.10
2019-02-03T06:26:51.929Z,76.37
2019-02-03T06:29:18.341Z,84.33
2019-02-03T06:31:44.773Z,89.90
2019-02-03T06:34:11.377Z,80.23
2019-02-03T06:36:37.845Z,77.30
2019-02-03T06:39:06.498Z,71.00
2019-02-03T06:41:33.088Z,89.50
2019-02-03T06:43:59.819Z,85.63
2019-02-03T06:46:30.827Z,72.37
2019-02-03T06:48:57.803Z,83.93
2019-02-03T06:51:24.436Z,73.57
2019-02-03T06:53:51.148Z,67.90
2019-02-03T06:56:17.774Z,55.33
2019-02-03T06:58:44.136Z,66.87
2019-02-03T07:01:10.722Z,63.03
2019-02-03T07:03:37.067Z,69.57
2019-02-03T07:06:03.589Z,59.30
2019-02-03T07:08:29.893Z,71.33
2019-02-03T07:10:56.309Z,70.33
2019-02-03T07:13:23.619Z,75.63
2019-02-03T07:15:49.936Z,67.47
2019-02-03T07:18:16.558Z,61.37
2019-02-03T07:20:42.867Z,68.33
2019-02-03T07:23:09.527Z,68.90
2019-02-03T07:25:36.103Z,49.70
2019-02-03T07:28:04.509Z,63.30
2019-02-03T07:30:30.825Z,62.80
2019-02-03T07:32:57.404Z,66.20
2019-02-03T07:35:23.786Z,60.13
2019-02-03T07:37:51.112Z,63.83
2019-02-03T07:40:19.943Z,59.13
2019-02-03T07:42:46.301Z,51.07
2019-02-03T07:45:12.942Z,55.73
2019-02-03T07:47:39.630Z,47.20
2019-02-03T07:50:15.786Z,60.87
2019-02-03T07:52:42.083Z,54.50
2019-02-03T07:55:13.076Z,47.30
2019-02-03T07:57:39.658Z,59.80
2019-02-03T08:00:13.687Z,61.37
2019-02-03T08:02:40.021Z,63.20
2019-02-03T08:05:09.527Z,61.80
2019-02-03T08:07:35.821Z,52.17
2019-02-03T08:10:06.339Z,54.30
2019-02-03T08:12:32.792Z,52.50
2019-02-03T08:14:59.236Z,51.47
2019-02-03T08:17:26.245Z,58.57
2019-02-03T08:19:52.816Z,65.13
2019-02-03T08:22:19.121Z,57.27
2019-02-03T08:24:45.440Z,53.83
2019-02-03T08:27:12.046Z,52.57
2019-02-03T08:29:38.330Z,50.87
2019-02-03T08:32:04.945Z,52.50
2019-02-03T08:34:31.519Z,49.40
2019-02-03T08:36:57.885Z,47.80
2019-02-03T08:39:24.233Z,54.50
2019-02-03T08:41:50.577Z,52.67
2019-02-03T08:44:17.256Z,46.10
2019-02-03T08:46:43.621Z,47.83
2019-02-03T08:49:10.160Z,35.50
2019-02-03T08:51:36.516Z,44.87
2019-02-03T08:54:03.823Z,44.17
2019-02-03T08:56:30.196Z,38.67
2019-02-03T08:58:56.789Z,36.70
2019-02-03T09:01:23.132Z,35.87
2019-02-03T09:03:49.432Z,30.63
2019-02-03T09:06:15.783Z,41.90
2019-02-03T09:08:42.679Z,44.00
2019-02-03T09:11:27.628Z,30.77
2019-02-03T09:13:55.785Z,33.17
2019-02-03T09:16:22.231Z,36.93
2019-02-03T09:18:48.819Z,33.90
2019-02-03T09:21:15.432Z,31.20
2019-02-03T09:23:42.213Z,32.07
2019-02-03T09:26:13.167Z,32.53
2019-02-03T09:28:39.596Z,34.73
2019-02-03T09:31:06.297Z,32.97
2019-02-03T09:33:32.694Z,30.57
2019-02-03T09:35:59.027Z,31.30
2019-02-03T09:38:25.365Z,30.60
2019-02-03T09:40:59.784Z,27.83
2019-02-03T09:43:20.961Z,32.53
2019-02-03T09:45:47.531Z,32.23
2019-02-03T09:48:13.844Z,33.43
2019-02-03T09:50:40.183Z,32.73
2019-02-03T09:53:07.593Z,27.70
2019-02-03T09:55:34.057Z,28.97
2019-02-03T09:58:00.954Z,25.60
2019-02-03T10:00:35.125Z,28.07
2019-02-03T10:03:03.403Z,21.97
2019-02-03T10:05:30.053Z,25.87
2019-02-03T10:07:57.240Z,28.73
2019-02-03T10:10:35.536Z,23.57
2019-02-03T10:13:02.148Z,33.03
2019-02-03T10:15:29.226Z,25.20
2019-02-03T10:17:55.955Z,20.57
2019-02-03T10:20:23.096Z,25.10
2019-02-03T10:22:49.767Z,25.73
2019-02-03T10:25:25.001Z,24.03
2019-02-03T10:27:51.570Z,21.97
2019-02-03T10:30:21.269Z,21.00
2019-02-03T10:32:48.397Z,24.20
2019-02-03T10:35:23.449Z,26.57
2019-02-03T10:37:46.974Z,21.73
2019-02-03T10:40:18.510Z,21.70
2019-02-03T10:42:46.389Z,21.67
2019-02-03T10:45:17.355Z,17.53
2019-02-03T10:47:43.924Z,20.33
2019-02-03T10:50:23.123Z,19.47
2019-02-03T10:52:50.095Z,17.70
2019-02-03T10:55:16.762Z,21.90
2019-02-03T10:57:43.849Z,21.77
2019-02-03T11:00:18.080Z,20.40
2019-02-03T11:02:43.579Z,20.23
2019-02-03T11:05:17.697Z,16.90
2019-02-03T11:07:44.391Z,17.83
2019-02-03T11:10:16.495Z,16.77
2019-02-03T11:12:42.891Z,20.97
2019-02-03T11:15:12.371Z,21.40
2019-02-03T11:17:38.702Z,21.20
2019-02-03T11:20:18.237Z,23.83
2019-02-03T11:22:44.214Z,24.00
2019-02-03T11:25:11.286Z,19.77
2019-02-03T11:27:37.831Z,24.50
2019-02-03T11:30:20.348Z,17.33
2019-02-03T11:32:47.382Z,22.23
2019-02-03T11:35:15.486Z,19.40
2019-02-03T11:37:42.280Z,17.93
2019-02-03T11:40:13.118Z,21.57
2019-02-03T11:42:39.873Z,17.77
2019-02-03T11:45:17.443Z,18.00
2019-02-03T11:47:43.753Z,16.87
2019-02-03T11:50:15.799Z,16.03
2019-02-03T11:52:42.798Z,16.13
2019-02-03T11:55:09.412Z,15.07
2019-02-03T11:57:36.222Z,18.10
2019-02-03T12:00:16.526Z,15.03
2019-02-03T12:02:42.880Z,19.17
2019-02-03T12:05:10.044Z,13.03
2019-02-03T12:07:37.011Z,16.23
2019-02-03T12:10:12.070Z,16.50
2019-02-03T12:12:38.427Z,12.80
2019-02-03T12:15:10.533Z,15.67
2019-02-03T12:17:36.902Z,14.73
2019-02-03T12:20:07.854Z,16.80
2019-02-03T12:22:34.184Z,15.83
2019-02-03T12:25:00.630Z,14.30
2019-02-03T12:27:26.916Z,14.77
2019-02-03T12:29:53.535Z,12.87
2019-02-03T12:32:19.840Z,12.30
2019-02-03T12:34:46.448Z,13.30
2019-02-03T12:37:13.225Z,11.10
2019-02-03T12:39:39.834Z,10.77
2019-02-03T12:42:13.042Z,9.47
2019-02-03T12:44:34.925Z,12.70
2019-02-03T12:47:01.296Z,11.07
2019-02-03T12:49:27.874Z,13.70
2019-02-03T12:51:54.453Z,10.77
2019-02-03T12:54:21.015Z,13.77
2019-02-03T12:56:47.325Z,12.47
2019-02-03T12:59:13.658Z,14.37
2019-02-03T13:01:40.321Z,12.70
2019-02-03T13:04:07.033Z,12.57
2019-02-03T13:06:33.892Z,10.00
2019-02-03T13:09:00.672Z,11.23
2019-02-03T13:11:28.277Z,12.20
2019-02-03T13:13:54.686Z,12.20
2019-02-03T13:16:21.081Z,14.00
2019-02-03T13:18:47.616Z,14.03
2019-02-03T13:21:14.485Z,13.80
2019-02-03T13:23:45.090Z,15.00
2019-02-03T13:26:09.084Z,16.00
2019-02-03T13:28:35.533Z,14.70
2019-02-03T13:31:02.665Z,16.07
2019-02-03T13:33:29.109Z,16.40
2019-02-03T13:35:55.788Z,15.87
2019-02-03T13:38:22.173Z,15.83
2019-02-03T13:40:49.087Z,14.90
2019-02-03T13:43:15.912Z,15.93
2019-02-03T13:45:45.014Z,16.47
2019-02-03T13:48:11.463Z,19.20
2019-02-03T13:50:38.525Z,14.40
2019-02-03T13:53:04.914Z,15.47
2019-02-03T13:55:31.286Z,18.27
2019-02-03T13:57:57.638Z,14.53
2019-02-03T14:00:30.208Z,16.77
2019-02-03T14:02:56.746Z,19.20
2019-02-03T14:05:23.425Z,16.10
2019-02-03T14:07:50.006Z,17.60
2019-02-03T14:10:27.120Z,18.97
2019-02-03T14:12:55.101Z,15.47
2019-02-03T14:15:22.091Z,15.17
2019-02-03T14:17:49.127Z,13.60
2019-02-03T14:20:25.050Z,14.30
2019-02-03T14:22:51.836Z,13.43
2019-02-03T14:25:27.611Z,13.97
2019-02-03T14:27:54.616Z,13.33
2019-02-03T14:30:25.599Z,13.43
2019-02-03T14:32:52.186Z,12.83
2019-02-03T14:35:18.812Z,12.03
2019-02-03T14:37:45.307Z,11.80
2019-02-03T14:40:20.577Z,12.90
2019-02-03T14:42:48.511Z,14.20
2019-02-03T14:45:22.971Z,13.23
2019-02-03T14:47:50.005Z,13.27
2019-02-03T14:50:20.779Z,11.50
2019-02-03T14:52:47.991Z,9.80
2019-02-03T14:55:18.814Z,12.13
2019-02-03T14:57:45.305Z,13.00
2019-02-03T15:00:22.575Z,12.80
2019-02-03T15:02:49.243Z,12.83
2019-02-03T15:05:20.166Z,14.40
2019-02-03T15:07:46.955Z,13.23
2019-02-03T15:10:14.494Z,14.70
2019-02-03T15:12:41.056Z,13.90
2019-02-03T15:15:19.219Z,18.00
2019-02-03T15:17:45.907Z,14.93
2019-02-03T15:20:16.590Z,15.50
2019-02-03T15:22:43.304Z,14.30
2019-02-03T15:25:10.183Z,18.73
2019-02-03T15:27:36.541Z,13.90
2019-02-03T15:30:19.053Z,11.20
2019-02-03T15:32:40.495Z,15.30
2019-02-03T15:35:09.534Z,15.63
2019-02-03T15:37:36.140Z,15.50
2019-02-03T15:40:11.213Z,16.50
2019-02-03T15:42:38.894Z,20.97
2019-02-03T15:45:10.131Z,20.23
2019-02-03T15:47:36.700Z,18.70
2019-02-03T15:50:08.739Z,14.03
2019-02-03T15:52:35.395Z,15.57
2019-02-03T15:55:02.120Z,18.37
2019-02-03T15:57:30.922Z,19.53
2019-02-03T15:59:57.923Z,18.70
2019-02-03T16:02:24.689Z,19.57
2019-02-03T16:04:51.014Z,16.10
2019-02-03T16:07:17.598Z,20.13
2019-02-03T16:09:43.912Z,16.10
2019-02-03T16:12:10.356Z,18.23
2019-02-03T16:14:36.674Z,14.67
2019-02-03T16:17:03.442Z,16.33
2019-02-03T16:19:30.097Z,17.63
2019-02-03T16:21:56.423Z,16.70
2019-02-03T16:24:23.165Z,15.50
2019-02-03T16:26:49.805Z,17.30
2019-02-03T16:29:16.139Z,17.63
2019-02-03T16:31:42.742Z,19.63
2019-02-03T16:34:09.271Z,26.50
2019-02-03T16:36:35.615Z,19.40
2019-02-03T16:39:06.189Z,16.53
2019-02-03T16:41:33.921Z,19.93
2019-02-03T16:44:00.226Z,21.80
2019-02-03T16:46:26.552Z,17.97
2019-02-03T16:48:53.019Z,20.43
2019-02-03T16:51:19.484Z,19.80
2019-02-03T16:53:46.372Z,18.50
2019-02-03T16:56:13.192Z,22.40
2019-02-03T16:58:39.838Z,20.53
2019-02-03T17:01:06.471Z,20.90
2019-02-03T17:03:32.843Z,20.33
2019-02-03T17:05:59.472Z,21.53
2019-02-03T17:08:26.269Z,20.93
2019-02-03T17:10:52.717Z,23.90
2019-02-03T17:13:19.850Z,27.87
2019-02-03T17:15:50.442Z,20.73
2019-02-03T17:18:16.942Z,20.03
2019-02-03T17:20:43.775Z,21.60
2019-02-03T17:23:10.470Z,20.20
2019-02-03T17:25:48.734Z,20.37
2019-02-03T17:28:15.393Z,20.47
2019-02-03T17:30:42.031Z,24.50
2019-02-03T17:33:08.862Z,23.83
2019-02-03T17:35:35.837Z,31.70
2019-02-03T17:38:03.004Z,21.77
2019-02-03T17:40:30.680Z,21.13
2019-02-03T17:42:57.123Z,18.73
2019-02-03T17:45:25.041Z,21.67
2019-02-03T17:47:51.476Z,23.07
2019-02-03T17:50:26.554Z,23.93
2019-02-03T17:52:53.194Z,26.27
2019-02-03T17:55:19.540Z,22.20
2019-02-03T17:57:46.149Z,23.73
2019-02-03T18:00:30.626Z,23.60
2019-02-03T18:02:57.499Z,24.93
2019-02-03T18:05:26.190Z,28.63
2019-02-03T18:07:52.600Z,23.00
2019-02-03T18:10:22.563Z,23.00
2019-02-03T18:12:49.306Z,25.17
2019-02-03T18:15:16.235Z,26.43
2019-02-03T18:17:42.827Z,28.30
2019-02-03T18:20:18.910Z,29.47
2019-02-03T18:22:45.575Z,31.60
2019-02-03T18:25:12.302Z,34.27
2019-02-03T18:27:39.368Z,33.90
2019-02-03T18:30:17.374Z,42.10
2019-02-03T18:32:44.411Z,37.33
2019-02-03T18:35:12.477Z,38.93
2019-02-03T18:37:39.142Z,44.10
2019-02-03T18:40:16.588Z,50.10
2019-02-03T18:42:43.172Z,48.87
2019-02-03T18:45:13.402Z,53.60
2019-02-03T18:47:40.112Z,45.07
2019-02-03T18:50:11.519Z,50.53
2019-02-03T18:52:39.718Z,60.20
2019-02-03T18:55:23.722Z,63.37
2019-02-03T18:57:50.177Z,50.77
2019-02-03T19:00:20.291Z,62.90
2019-02-03T19:02:47.098Z,67.27
2019-02-03T19:05:17.735Z,51.30
2019-02-03T19:07:45.426Z,66.67
2019-02-03T19:10:16.291Z,72.37
2019-02-03T19:12:42.980Z,68.00
2019-02-03T19:15:11.885Z,61.20
2019-02-03T19:17:38.320Z,60.50
2019-02-03T19:20:25.042Z,65.57
2019-02-03T19:22:51.857Z,60.30
2019-02-03T19:25:20.317Z,63.50
2019-02-03T19:27:47.075Z,72.23
2019-02-03T19:30:20.432Z,64.80
2019-02-03T19:32:47.267Z,73.17
2019-02-03T19:35:16.214Z,67.07
2019-02-03T19:37:42.988Z,75.20
2019-02-03T19:40:18.419Z,62.13
2019-02-03T19:42:45.934Z,57.63
2019-02-03T19:45:21.503Z,67.53
2019-02-03T19:47:48.110Z,66.83
2019-02-03T19:50:22.640Z,68.33
2019-02-03T19:52:49.111Z,65.57
2019-02-03T19:55:15.540Z,54.17
2019-02-03T19:57:42.177Z,50.47
2019-02-03T20:00:17.406Z,51.80
2019-02-03T20:02:44.005Z,50.93
2019-02-03T20:05:10.666Z,54.10
2019-02-03T20:07:37.280Z,56.87
2019-02-03T20:10:17.759Z,49.30
2019-02-03T20:12:45.865Z,51.97
2019-02-03T20:15:15.918Z,49.80
2019-02-03T20:17:44.826Z,53.23
2019-02-03T20:20:18.438Z,52.47
2019-02-03T20:22:46.482Z,51.50
2019-02-03T20:25:13.453Z,50.40
2019-02-03T20:27:40.325Z,49.63
2019-02-03T20:30:21.258Z,51.67
2019-02-03T20:32:47.668Z,46.10
2019-02-03T20:35:20.442Z,58.40
2019-02-03T20:37:46.857Z,43.53
2019-02-03T20:40:17.986Z,40.33
2019-02-03T20:42:44.330Z,44.43
2019-02-03T20:45:20.869Z,54.03
2019-02-03T20:47:40.804Z,36.80
2019-02-03T20:50:22.712Z,42.77
2019-02-03T20:52:49.244Z,40.97
2019-02-03T20:55:19.965Z,39.17
2019-02-03T20:57:47.438Z,39.90
2019-02-03T21:00:20.380Z,44.87
2019-02-03T21:02:47.528Z,37.30
2019-02-03T21:05:13.891Z,32.20
2019-02-03T21:07:40.496Z,36.27
2019-02-03T21:10:14.353Z,32.97
2019-02-03T21:12:40.961Z,34.87
2019-02-03T21:15:14.222Z,31.30
2019-02-03T21:17:40.826Z,32.60
2019-02-03T21:20:12.840Z,30.90
2019-02-03T21:22:39.445Z,30.77
2019-02-03T21:25:06.218Z,26.30
2019-02-03T21:27:32.854Z,32.97
2019-02-03T21:29:59.449Z,27.10
2019-02-03T21:32:28.242Z,37.27
2019-02-03T21:34:54.722Z,31.83
2019-02-03T21:37:21.126Z,24.20
2019-02-03T21:39:48.914Z,28.30
2019-02-03T21:42:15.367Z,25.50
2019-02-03T21:44:42.167Z,30.20
2019-02-03T21:47:08.795Z,28.90
2019-02-03T21:49:36.291Z,26.87
2019-02-03T21:52:03.106Z,24.97
2019-02-03T21:54:29.807Z,26.67
2019-02-03T21:56:56.299Z,26.10
2019-02-03T21:59:22.684Z,29.43
2019-02-03T22:01:49.094Z,25.10
2019-02-03T22:04:16.439Z,30.67
2019-02-03T22:06:42.815Z,35.10
2019-02-03T22:09:09.519Z,32.60
2019-02-03T22:11:37.235Z,31.03
2019-02-03T22:14:03.775Z,27.70
2019-02-03T22:16:30.128Z,30.10
2019-02-03T22:18:56.818Z,28.73
2019-02-03T22:21:23.454Z,31.43
2019-02-03T22:23:50.043Z,25.27
2019-02-03T22:26:16.614Z,32.97
2019-02-03T22:28:42.909Z,31.60
2019-02-03T22:31:09.552Z,30.90
2019-02-03T22:33:36.122Z,31.33
2019-02-03T22:36:02.803Z,29.60
2019-02-03T22:38:31.322Z,26.80
2019-02-03T22:40:57.981Z,32.93
2019-02-03T22:43:24.461Z,29.60
2019-02-03T22:45:50.780Z,25.93
2019-02-03T22:48:17.446Z,24.87
2019-02-03T22:50:44.024Z,20.90
2019-02-03T22:53:10.416Z,36.13
2019-02-03T22:55:36.728Z,27.30
2019-02-03T22:58:03.385Z,26.07
2019-02-03T23:00:51.544Z,25.73
2019-02-03T23:03:21.958Z,27.50
2019-02-03T23:05:48.305Z,27.23
2019-02-03T23:08:14.628Z,29.50
2019-02-03T23:10:41.216Z,29.10
2019-02-03T23:13:07.780Z,27.60
2019-02-03T23:15:34.159Z,26.37
2019-02-03T23:18:00.908Z,25.03
2019-02-03T23:20:27.253Z,24.90
2019-02-03T23:22:53.696Z,28.93
2019-02-03T23:25:20.060Z,28.40
2019-02-03T23:27:46.393Z,26.20
2019-02-03T23:30:15.676Z,27.37
2019-02-03T23:32:42.021Z,31.60
2019-02-03T23:35:08.442Z,24.57
2019-02-03T23:37:34.761Z,28.27
2019-02-03T23:40:01.067Z,25.73
2019-02-03T23:42:27.643Z,27.17
2019-02-03T23:44:53.980Z,23.80
2019-02-03T23:47:20.561Z,26.63
2019-02-03T23:49:47.373Z,25.53
2019-02-03T23:52:13.689Z,26.30
2019-02-03T23:54:40.302Z,26.40
2019-02-03T23:57:06.648Z,27.07
2019-02-03T23:59:32.961Z,26.10
